createdAt,value
2023-02-22T00:00:51.546Z,6.30
2023-02-22T00:03:25.153Z,6.68
2023-02-22T00:05:55.857Z,4.70
2023-02-22T00:08:30.496Z,5.03
2023-02-22T00:10:59.396Z,5.68
2023-02-22T00:13:30.515Z,5.47
2023-02-22T00:16:00.263Z,5.30
2023-02-22T00:18:30.022Z,6.15
2023-02-22T00:21:01.544Z,6.03
2023-02-22T00:23:32.092Z,4.75
2023-02-22T00:26:01.965Z,5.65
2023-02-22T00:28:31.922Z,5.63
2023-02-22T00:31:00.491Z,5.25
2023-02-22T00:33:28.973Z,5.47
2023-02-22T00:35:57.831Z,6.00
2023-02-22T00:38:26.629Z,6.13
2023-02-22T00:40:55.701Z,6.05
2023-02-22T00:43:26.549Z,5.95
2023-02-22T00:45:57.282Z,6.35
2023-02-22T00:48:27.431Z,5.57
2023-02-22T00:50:56.484Z,5.40
2023-02-22T00:53:25.956Z,6.55
2023-02-22T00:55:55.360Z,5.95
2023-02-22T00:58:25.045Z,6.45
2023-02-22T01:00:53.575Z,5.93
2023-02-22T01:03:41.408Z,6.65
2023-02-22T01:06:10.155Z,5.50
2023-02-22T01:08:39.227Z,6.20
2023-02-22T01:11:07.810Z,6.13
2023-02-22T01:13:36.661Z,5.78
2023-02-22T01:16:08.393Z,6.22
2023-02-22T01:18:38.811Z,6.28
2023-02-22T01:21:08.683Z,5.50
2023-02-22T01:23:37.238Z,6.00
2023-02-22T01:26:06.548Z,6.05
2023-02-22T01:28:35.374Z,5.78
2023-02-22T01:31:04.253Z,6.32
2023-02-22T01:33:34.044Z,5.65
2023-02-22T01:36:04.330Z,7.60
2023-02-22T01:38:32.824Z,6.88
2023-02-22T01:41:01.780Z,5.53
2023-02-22T01:43:33.858Z,6.07
2023-02-22T01:46:04.285Z,5.68
2023-02-22T01:48:51.550Z,6.53
2023-02-22T01:51:27.065Z,6.93
2023-02-22T01:54:01.442Z,5.72
2023-02-22T01:56:32.709Z,6.10
2023-02-22T01:59:07.130Z,5.82
2023-02-22T02:01:38.002Z,6.93
2023-02-22T02:04:12.039Z,6.00
2023-02-22T02:06:43.218Z,6.03
2023-02-22T02:09:16.836Z,6.15
2023-02-22T02:11:50.034Z,6.55
2023-02-22T02:14:23.391Z,6.50
2023-02-22T02:16:56.299Z,7.07
2023-02-22T02:19:38.197Z,6.38
2023-02-22T02:22:29.754Z,6.13
2023-02-22T02:25:26.667Z,5.95
2023-02-22T02:28:27.501Z,6.05
2023-02-22T02:31:40.731Z,6.75
2023-02-22T02:34:20.558Z,8.30
2023-02-22T02:36:57.625Z,6.20
2023-02-22T02:39:30.597Z,6.30
2023-02-22T02:42:01.960Z,6.40
2023-02-22T02:44:37.925Z,6.72
2023-02-22T02:47:11.271Z,6.95
2023-02-22T02:49:53.056Z,7.45
2023-02-22T02:52:25.269Z,5.63
2023-02-22T02:54:54.668Z,6.53
2023-02-22T02:57:24.849Z,6.45
2023-02-22T02:59:53.282Z,6.25
2023-02-22T03:02:35.451Z,6.53
2023-02-22T03:05:37.477Z,6.03
2023-02-22T03:08:14.937Z,6.45
2023-02-22T03:10:53.730Z,7.28
2023-02-22T03:13:32.111Z,6.60
2023-02-22T03:16:13.731Z,6.47
2023-02-22T03:18:51.859Z,6.68
2023-02-22T03:21:28.391Z,6.60
2023-02-22T03:24:07.789Z,8.25
2023-02-22T03:26:41.141Z,7.68
2023-02-22T03:29:12.883Z,8.38
2023-02-22T03:31:46.294Z,8.13
2023-02-22T03:34:18.043Z,8.20
2023-02-22T03:36:51.754Z,7.65
2023-02-22T03:39:21.744Z,6.68
2023-02-22T03:41:52.523Z,6.47
2023-02-22T03:44:28.941Z,6.47
2023-02-22T03:47:02.125Z,5.40
2023-02-22T03:49:37.274Z,6.70
2023-02-22T03:52:10.177Z,6.18
2023-02-22T03:54:41.384Z,6.55
2023-02-22T03:57:15.545Z,6.43
2023-02-22T03:59:45.609Z,6.80
2023-02-22T04:02:14.052Z,7.28
2023-02-22T04:04:42.494Z,6.03
2023-02-22T04:07:12.659Z,6.30
2023-02-22T04:09:41.520Z,6.47
2023-02-22T04:12:11.234Z,6.25
2023-02-22T04:14:56.269Z,6.70
2023-02-22T04:17:25.235Z,5.20
2023-02-22T04:19:53.624Z,7.05
2023-02-22T04:22:25.706Z,6.97
2023-02-22T04:24:54.669Z,6.55
2023-02-22T04:27:23.062Z,6.32
2023-02-22T04:29:51.450Z,5.78
2023-02-22T04:32:19.987Z,5.55
2023-02-22T04:34:48.343Z,6.65
2023-02-22T04:37:17.254Z,6.85
2023-02-22T04:39:47.332Z,5.15
2023-02-22T04:42:15.681Z,6.15
2023-02-22T04:44:44.687Z,6.70
2023-02-22T04:47:12.966Z,6.97
2023-02-22T04:49:41.253Z,6.50
2023-02-22T04:52:10.866Z,6.53
2023-02-22T04:54:40.434Z,7.00
2023-02-22T04:57:10.276Z,7.90
2023-02-22T04:59:38.798Z,7.72
2023-02-22T05:02:07.384Z,8.38
2023-02-22T05:04:36.300Z,8.07
2023-02-22T05:07:04.630Z,8.80
2023-02-22T05:09:33.091Z,9.73
2023-02-22T05:12:01.391Z,9.23
2023-02-22T05:14:31.107Z,9.90
2023-02-22T05:17:00.589Z,10.07
2023-02-22T05:19:29.001Z,10.10
2023-02-22T05:21:57.742Z,10.63
2023-02-22T05:24:26.274Z,9.77
2023-02-22T05:26:54.650Z,10.90
2023-02-22T05:29:23.108Z,9.60
2023-02-22T05:31:52.888Z,10.25
2023-02-22T05:34:21.359Z,9.63
2023-02-22T05:36:50.004Z,9.63
2023-02-22T05:39:18.425Z,9.90
2023-02-22T05:41:46.770Z,9.80
2023-02-22T05:44:15.099Z,10.95
2023-02-22T05:46:43.525Z,9.35
2023-02-22T05:49:13.368Z,10.32
2023-02-22T05:51:41.749Z,9.82
2023-02-22T05:54:10.064Z,10.48
2023-02-22T05:56:38.621Z,9.30
2023-02-22T05:59:06.906Z,9.38
2023-02-22T06:01:36.322Z,9.88
2023-02-22T06:04:04.741Z,9.43
2023-02-22T06:06:34.564Z,9.63
2023-02-22T06:09:02.907Z,10.30
2023-02-22T06:11:31.260Z,9.73
2023-02-22T06:13:59.575Z,9.85
2023-02-22T06:16:28.082Z,8.95
2023-02-22T06:18:56.574Z,8.57
2023-02-22T06:21:25.040Z,8.35
2023-02-22T06:23:54.848Z,8.52
2023-02-22T06:26:23.512Z,7.30
2023-02-22T06:28:51.907Z,7.88
2023-02-22T06:31:20.556Z,9.32
2023-02-22T06:33:49.144Z,6.45
2023-02-22T06:36:17.576Z,7.45
2023-02-22T06:38:45.986Z,6.85
2023-02-22T06:41:16.345Z,7.13
2023-02-22T06:43:44.918Z,7.57
2023-02-22T06:46:13.959Z,8.75
2023-02-22T06:48:43.164Z,7.57
2023-02-22T06:51:12.132Z,7.20
2023-02-22T06:53:40.463Z,7.15
2023-02-22T06:56:08.753Z,5.90
2023-02-22T06:58:38.582Z,6.65
2023-02-22T07:01:08.127Z,7.25
2023-02-22T07:03:37.009Z,7.30
2023-02-22T07:06:07.708Z,7.25
2023-02-22T07:08:36.251Z,10.50
2023-02-22T07:11:05.119Z,13.10
2023-02-22T07:13:33.608Z,12.55
2023-02-22T07:16:03.742Z,12.02
2023-02-22T07:18:32.284Z,10.73
2023-02-22T07:21:00.898Z,11.93
2023-02-22T07:23:29.345Z,10.38
2023-02-22T07:25:57.898Z,7.63
2023-02-22T07:28:27.079Z,6.95
2023-02-22T07:30:55.559Z,9.00
2023-02-22T07:33:40.632Z,9.50
2023-02-22T07:36:09.625Z,9.77
2023-02-22T07:38:37.998Z,8.93
2023-02-22T07:41:06.620Z,8.23
2023-02-22T07:43:35.300Z,8.98
2023-02-22T07:46:05.578Z,8.00
2023-02-22T07:48:34.196Z,7.63
2023-02-22T07:51:20.925Z,7.47
2023-02-22T07:53:50.035Z,6.95
2023-02-22T07:56:18.556Z,7.43
2023-02-22T07:58:46.946Z,7.25
2023-02-22T08:01:15.944Z,7.15
2023-02-22T08:03:47.762Z,6.70
2023-02-22T08:06:16.856Z,6.93
2023-02-22T08:08:47.270Z,6.40
2023-02-22T08:11:16.768Z,6.20
2023-02-22T08:13:45.408Z,6.35
2023-02-22T08:16:13.823Z,6.00
2023-02-22T08:18:42.243Z,6.20
2023-02-22T08:21:10.856Z,5.03
2023-02-22T08:23:39.324Z,5.65
2023-02-22T08:26:10.743Z,5.53
2023-02-22T08:28:39.077Z,5.07
2023-02-22T08:31:08.980Z,4.97
2023-02-22T08:33:37.882Z,5.28
2023-02-22T08:36:07.175Z,5.60
2023-02-22T08:38:35.748Z,5.00
2023-02-22T08:41:20.730Z,4.40
2023-02-22T08:43:49.186Z,5.45
2023-02-22T08:46:18.187Z,5.07
2023-02-22T08:48:52.536Z,6.13
2023-02-22T08:51:21.702Z,5.25
2023-02-22T08:53:50.683Z,4.97
2023-02-22T08:56:21.428Z,6.07
2023-02-22T08:58:50.309Z,5.53
2023-02-22T09:01:28.006Z,5.50
2023-02-22T09:04:01.065Z,6.60
2023-02-22T09:06:29.949Z,6.13
2023-02-22T09:08:58.620Z,6.60
2023-02-22T09:11:43.378Z,5.45
2023-02-22T09:14:11.846Z,4.88
2023-02-22T09:16:40.299Z,5.22
2023-02-22T09:19:08.798Z,5.00
2023-02-22T09:21:37.271Z,5.88
2023-02-22T09:24:08.621Z,5.25
2023-02-22T09:26:39.480Z,5.30
2023-02-22T09:29:10.872Z,5.32
2023-02-22T09:31:40.161Z,5.07
2023-02-22T09:34:13.986Z,5.15
2023-02-22T09:36:42.948Z,4.35
2023-02-22T09:39:12.389Z,4.80
2023-02-22T09:41:52.728Z,5.65
2023-02-22T09:44:41.166Z,5.28
2023-02-22T09:47:18.392Z,5.75
2023-02-22T09:49:58.123Z,6.55
2023-02-22T09:52:29.640Z,7.47
2023-02-22T09:55:07.712Z,7.22
2023-02-22T09:57:40.758Z,7.47
2023-02-22T10:00:21.543Z,8.20
2023-02-22T10:03:01.233Z,7.10
2023-02-22T10:05:33.953Z,6.95
2023-02-22T10:08:06.205Z,6.15
2023-02-22T10:10:39.414Z,6.60
2023-02-22T10:13:17.949Z,7.00
2023-02-22T10:15:55.834Z,6.45
2023-02-22T10:19:15.222Z,7.32
2023-02-22T10:21:57.710Z,6.22
2023-02-22T10:24:39.672Z,6.88
2023-02-22T10:27:17.081Z,7.85
2023-02-22T10:29:49.632Z,7.00
2023-02-22T10:32:25.883Z,6.60
2023-02-22T10:34:56.044Z,6.90
2023-02-22T10:37:27.924Z,7.45
2023-02-22T10:40:05.465Z,6.53
2023-02-22T10:42:34.000Z,7.78
2023-02-22T10:45:02.340Z,5.93
2023-02-22T10:47:34.065Z,6.07
2023-02-22T10:50:04.355Z,5.43
2023-02-22T10:52:34.851Z,5.63
2023-02-22T10:55:15.362Z,6.20
2023-02-22T10:57:47.461Z,6.38
2023-02-22T11:00:20.509Z,7.10
2023-02-22T11:02:56.124Z,6.07
2023-02-22T11:05:36.814Z,7.47
2023-02-22T11:08:24.889Z,6.68
2023-02-22T11:10:55.386Z,5.97
2023-02-22T11:13:29.282Z,6.78
2023-02-22T11:16:01.506Z,6.40
2023-02-22T11:18:34.315Z,6.93
2023-02-22T11:21:05.836Z,5.07
2023-02-22T11:23:35.355Z,5.88
2023-02-22T11:26:09.032Z,6.32
2023-02-22T11:28:38.577Z,6.18
2023-02-22T11:31:17.452Z,6.18
2023-02-22T11:36:37.522Z,6.38
2023-02-22T11:39:11.519Z,5.03
2023-02-22T11:41:40.020Z,4.93
2023-02-22T11:44:23.637Z,5.68
2023-02-22T11:46:55.785Z,6.55
2023-02-22T11:49:34.255Z,5.07
2023-02-22T11:52:17.476Z,5.30
2023-02-22T11:55:07.571Z,5.72
2023-02-22T11:57:54.941Z,5.28
2023-02-22T12:00:33.535Z,5.75
2023-02-22T12:03:22.221Z,6.65
2023-02-22T12:06:11.711Z,5.63
2023-02-22T12:08:55.002Z,7.53
2023-02-22T12:11:28.789Z,5.78
2023-02-22T12:14:09.041Z,5.88
2023-02-22T12:16:50.037Z,6.43
2023-02-22T12:19:28.697Z,5.57
2023-02-22T12:22:02.438Z,6.65
2023-02-22T12:24:37.353Z,6.25
2023-02-22T12:27:10.599Z,6.30
2023-02-22T12:29:44.368Z,5.90
2023-02-22T12:32:17.237Z,6.75
2023-02-22T12:34:48.888Z,6.72
2023-02-22T12:37:23.892Z,7.07
2023-02-22T12:40:00.230Z,6.50
2023-02-22T12:42:35.026Z,6.10
2023-02-22T12:45:11.294Z,6.10
2023-02-22T12:47:49.104Z,5.30
2023-02-22T12:50:23.535Z,6.22
2023-02-22T12:52:57.832Z,6.13
2023-02-22T12:55:27.907Z,5.65
2023-02-22T12:58:02.171Z,6.20
2023-02-22T13:00:36.516Z,5.97
2023-02-22T13:03:19.420Z,5.70
2023-02-22T13:05:52.418Z,5.55
2023-02-22T13:08:30.417Z,5.75
2023-02-22T13:11:08.527Z,5.85
2023-02-22T13:13:44.266Z,5.80
2023-02-22T13:16:23.171Z,5.32
2023-02-22T13:18:58.732Z,5.75
2023-02-22T13:21:33.533Z,5.88
2023-02-22T13:24:12.619Z,6.60
2023-02-22T13:26:50.170Z,6.45
2023-02-22T13:29:23.700Z,7.53
2023-02-22T13:32:15.579Z,5.53
2023-02-22T13:35:05.986Z,5.63
2023-02-22T13:38:01.527Z,5.85
2023-02-22T13:40:50.688Z,6.28
2023-02-22T13:43:38.171Z,6.10
2023-02-22T13:46:39.230Z,6.80
2023-02-22T13:49:21.317Z,6.40
2023-02-22T13:51:51.752Z,6.18
2023-02-22T13:54:28.823Z,6.53
2023-02-22T13:57:00.022Z,5.93
2023-02-22T13:59:33.835Z,6.07
2023-02-22T14:02:07.957Z,5.10
2023-02-22T14:04:41.976Z,6.00
2023-02-22T14:07:56.275Z,5.80
2023-02-22T14:10:51.151Z,5.70
2023-02-22T14:13:22.582Z,5.25
2023-02-22T14:16:27.972Z,4.90
2023-02-22T14:19:06.562Z,4.80
2023-02-22T14:21:36.349Z,6.93
2023-02-22T14:24:10.478Z,6.13
2023-02-22T14:26:40.823Z,5.60
2023-02-22T14:29:21.265Z,6.35
2023-02-22T14:32:02.349Z,6.43
2023-02-22T14:34:46.713Z,5.65
2023-02-22T14:37:19.167Z,4.70
2023-02-22T14:39:51.272Z,5.68
2023-02-22T14:42:25.255Z,6.00
2023-02-22T14:45:01.281Z,7.40
2023-02-22T14:47:32.958Z,6.30
2023-02-22T14:50:07.967Z,5.78
2023-02-22T14:52:40.046Z,6.80
2023-02-22T14:55:18.585Z,6.75
2023-02-22T14:57:54.996Z,6.53
2023-02-22T15:00:31.946Z,5.72
2023-02-22T15:03:01.913Z,6.40
2023-02-22T15:05:38.365Z,6.60
2023-02-22T15:08:09.022Z,5.88
2023-02-22T15:10:43.878Z,6.35
2023-02-22T15:13:23.856Z,7.43
2023-02-22T15:16:01.854Z,7.30
2023-02-22T15:18:35.354Z,6.45
2023-02-22T15:21:08.178Z,6.20
2023-02-22T15:23:45.504Z,7.38
2023-02-22T15:26:24.055Z,7.00
2023-02-22T15:28:55.756Z,9.02
2023-02-22T15:31:34.802Z,8.10
2023-02-22T15:34:22.223Z,7.53
2023-02-22T15:36:54.597Z,7.13
2023-02-22T15:39:29.511Z,6.45
2023-02-22T15:42:07.882Z,5.63
2023-02-22T15:44:38.168Z,5.60
2023-02-22T15:47:08.468Z,6.15
2023-02-22T15:49:38.088Z,6.97
2023-02-22T15:52:11.112Z,6.20
2023-02-22T15:54:48.422Z,6.70
2023-02-22T15:57:18.670Z,6.75
2023-02-22T15:59:51.622Z,5.75
2023-02-22T16:02:32.719Z,6.45
2023-02-22T16:05:05.133Z,6.50
2023-02-22T16:07:34.622Z,6.20
2023-02-22T16:10:09.395Z,6.22
2023-02-22T16:12:37.761Z,5.55
2023-02-22T16:15:17.874Z,6.10
2023-02-22T16:18:01.423Z,7.45
2023-02-22T16:20:36.253Z,7.03
2023-02-22T16:23:27.756Z,7.43
2023-02-22T16:26:21.006Z,6.63
2023-02-22T16:28:52.586Z,6.57
2023-02-22T16:31:22.665Z,7.05
2023-02-22T16:33:53.095Z,7.18
2023-02-22T16:36:37.749Z,7.72
2023-02-22T16:39:08.338Z,8.32
2023-02-22T16:41:36.748Z,7.78
2023-02-22T16:44:07.913Z,8.73
2023-02-22T16:46:38.122Z,9.00
2023-02-22T16:49:08.079Z,8.15
2023-02-22T16:51:42.655Z,8.65
2023-02-22T16:54:13.609Z,8.50
2023-02-22T16:56:42.403Z,8.75
2023-02-22T16:59:14.144Z,8.07
2023-02-22T17:01:42.601Z,9.35
2023-02-22T17:04:16.119Z,9.80
2023-02-22T17:06:44.598Z,8.73
2023-02-22T17:09:12.995Z,10.30
2023-02-22T17:11:41.700Z,10.10
2023-02-22T17:14:11.973Z,11.40
2023-02-22T17:16:40.219Z,11.38
2023-02-22T17:19:16.220Z,11.93
2023-02-22T17:21:44.681Z,10.45
2023-02-22T17:24:14.239Z,11.45
2023-02-22T17:26:43.416Z,10.73
2023-02-22T17:29:13.277Z,10.15
2023-02-22T17:31:41.694Z,9.02
2023-02-22T17:34:10.061Z,8.82
2023-02-22T17:36:39.802Z,9.00
2023-02-22T17:39:10.599Z,8.63
2023-02-22T17:41:40.725Z,9.13
2023-02-22T17:44:09.561Z,9.25
2023-02-22T17:46:40.173Z,9.05
2023-02-22T17:49:08.762Z,8.63
2023-02-22T17:51:40.438Z,9.60
2023-02-22T17:54:10.581Z,10.02
2023-02-22T17:56:38.984Z,9.85
2023-02-22T17:59:09.195Z,9.90
2023-02-22T18:01:37.814Z,9.32
2023-02-22T18:04:06.590Z,10.88
2023-02-22T18:06:35.229Z,10.18
2023-02-22T18:09:10.605Z,8.85
2023-02-22T18:11:41.205Z,8.95
2023-02-22T18:14:10.887Z,9.82
2023-02-22T18:16:39.609Z,9.15
2023-02-22T18:19:08.175Z,10.80
2023-02-22T18:21:38.728Z,10.80
2023-02-22T18:24:07.881Z,12.60
2023-02-22T18:26:39.041Z,11.85
2023-02-22T18:29:12.380Z,12.55
2023-02-22T18:31:40.858Z,13.07
2023-02-22T18:34:12.968Z,15.10
2023-02-22T18:36:41.324Z,13.35
2023-02-22T18:39:13.110Z,14.25
2023-02-22T18:41:41.414Z,11.77
2023-02-22T18:44:11.184Z,13.15
2023-02-22T18:46:39.632Z,11.25
2023-02-22T18:49:08.107Z,12.40
2023-02-22T18:51:36.510Z,14.30
2023-02-22T18:54:05.096Z,14.77
2023-02-22T18:56:34.155Z,14.80
2023-02-22T18:59:04.014Z,15.95
2023-02-22T19:01:38.800Z,14.13
2023-02-22T19:04:09.848Z,16.20
2023-02-22T19:06:39.078Z,18.00
2023-02-22T19:09:08.720Z,16.85
2023-02-22T19:11:40.143Z,15.23
2023-02-22T19:14:09.666Z,16.38
2023-02-22T19:16:39.982Z,16.05
2023-02-22T19:19:08.511Z,14.65
2023-02-22T19:21:37.598Z,14.75
2023-02-22T19:24:06.453Z,17.90
2023-02-22T19:26:34.822Z,16.80
2023-02-22T19:29:08.510Z,17.42
2023-02-22T19:31:40.124Z,17.48
2023-02-22T19:34:11.162Z,18.17
2023-02-22T19:36:40.629Z,17.90
2023-02-22T19:39:09.196Z,16.88
2023-02-22T19:41:38.234Z,18.23
2023-02-22T19:44:07.192Z,17.73
2023-02-22T19:46:35.697Z,16.00
2023-02-22T19:49:05.995Z,16.27
2023-02-22T19:51:35.371Z,14.85
2023-02-22T19:54:05.604Z,16.48
2023-02-22T19:56:38.961Z,16.17
2023-02-22T19:59:13.466Z,18.17
2023-02-22T20:01:44.508Z,17.30
2023-02-22T20:04:18.679Z,18.90
2023-02-22T20:06:49.133Z,19.40
2023-02-22T20:09:19.569Z,19.05
2023-02-22T20:11:49.500Z,17.95
2023-02-22T20:14:19.802Z,18.33
2023-02-22T20:16:49.212Z,18.05
2023-02-22T20:19:18.987Z,16.85
2023-02-22T20:21:47.322Z,17.00
2023-02-22T20:24:18.349Z,14.93
2023-02-22T20:26:47.927Z,14.40
2023-02-22T20:29:16.932Z,15.80
2023-02-22T20:31:49.332Z,15.55
2023-02-22T20:34:19.186Z,15.23
2023-02-22T20:36:47.548Z,15.40
2023-02-22T20:39:16.206Z,15.30
2023-02-22T20:41:47.104Z,16.08
2023-02-22T20:44:20.103Z,15.13
2023-02-22T20:46:49.383Z,15.15
2023-02-22T20:49:21.445Z,15.68
2023-02-22T20:51:50.078Z,15.40
2023-02-22T20:54:18.762Z,16.60
2023-02-22T20:56:48.201Z,17.33
2023-02-22T20:59:18.579Z,14.95
2023-02-22T21:01:48.159Z,15.75
2023-02-22T21:04:16.946Z,16.85
2023-02-22T21:06:47.259Z,16.17
2023-02-22T21:09:17.733Z,17.40
2023-02-22T21:11:46.921Z,17.27
2023-02-22T21:14:18.801Z,17.33
2023-02-22T21:16:48.822Z,18.23
2023-02-22T21:19:28.012Z,16.75
2023-02-22T21:21:58.860Z,17.80
2023-02-22T21:24:28.850Z,18.23
2023-02-22T21:26:58.742Z,20.48
2023-02-22T21:29:27.686Z,18.75
2023-02-22T21:31:56.401Z,19.10
2023-02-22T21:34:25.979Z,20.05
2023-02-22T21:36:54.446Z,20.45
2023-02-22T21:39:28.340Z,22.50
2023-02-22T21:42:00.278Z,22.02
2023-02-22T21:44:29.596Z,20.55
2023-02-22T21:46:58.293Z,21.92
2023-02-22T21:49:26.713Z,17.92
2023-02-22T21:51:55.121Z,14.18
2023-02-22T21:54:25.123Z,11.32
2023-02-22T21:56:54.469Z,11.13
2023-02-22T21:59:24.032Z,10.18
2023-02-22T22:01:55.971Z,9.27
2023-02-22T22:04:27.773Z,9.45
2023-02-22T22:06:58.003Z,8.27
2023-02-22T22:09:33.167Z,8.35
2023-02-22T22:12:05.350Z,7.15
2023-02-22T22:14:34.911Z,7.38
2023-02-22T22:17:05.594Z,7.60
2023-02-22T22:19:39.219Z,6.80
2023-02-22T22:22:07.989Z,7.15
2023-02-22T22:24:40.467Z,7.35
2023-02-22T22:27:12.496Z,7.63
2023-02-22T22:29:40.899Z,7.80
2023-02-22T22:32:10.708Z,7.13
2023-02-22T22:34:39.299Z,7.57
2023-02-22T22:37:08.729Z,7.57
2023-02-22T22:39:38.849Z,7.20
2023-02-22T22:42:09.155Z,7.53
2023-02-22T22:44:42.294Z,7.00
2023-02-22T22:47:12.560Z,8.02
2023-02-22T22:49:42.725Z,7.35
2023-02-22T22:52:12.508Z,7.50
2023-02-22T22:54:43.470Z,7.68
2023-02-22T22:57:12.513Z,9.05
2023-02-22T22:59:40.928Z,7.40
2023-02-22T23:02:11.465Z,7.45
2023-02-22T23:04:39.974Z,7.53
2023-02-22T23:07:08.542Z,7.20
2023-02-22T23:09:38.986Z,7.47
2023-02-22T23:12:16.906Z,7.80
2023-02-22T23:14:46.996Z,7.18
2023-02-22T23:17:30.892Z,7.55
2023-02-22T23:19:59.466Z,8.50
2023-02-22T23:22:27.970Z,7.82
2023-02-22T23:24:56.221Z,8.32
2023-02-22T23:27:25.955Z,8.13
2023-02-22T23:29:54.395Z,6.95
2023-02-22T23:32:22.834Z,7.47
2023-02-22T23:34:51.415Z,7.47
2023-02-22T23:37:20.785Z,7.65
2023-02-22T23:39:50.879Z,7.25
2023-02-22T23:42:19.862Z,8.73
2023-02-22T23:44:53.083Z,8.88
2023-02-22T23:47:21.445Z,7.75
2023-02-22T23:49:50.116Z,7.88
2023-02-22T23:52:24.245Z,7.45
2023-02-22T23:54:54.045Z,7.90
2023-02-22T23:57:22.490Z,8.13
2023-02-22T23:59:52.276Z,7.32
